EGMC

Southend Airport

Southend, United Kingdom
METAR EGMC 182320Z 18003KT 9999 SCT020 BKN025 06/03 Q1020
Observed Flight Rules
Feb-18 @ 23:20 UTC (45 minutes ago) Marginal Visual Flight Rules
Wind Visibility Clouds
180° at 3 knots 10,000+ meters
  • Scattered at 2,000' AGL
  • Broken at 2,500' AGL
Temperatures Readings
Current 6°C / 43°F
Dewpoint 3°C / 37°F
Humidity 81%
Altimeter 30.12" Hg
Pressure 1020 hPa
Elevation 15
METAR EGMC 182320Z 18003KT 9999 SCT020 BKN025 06/03 Q1020
Observed Flight Rules
Feb-18 @ 23:20 UTC
(45 minutes ago)
MVFR
Wind Visibility
180° at 3 knots 10,000+ meters
Clouds
  • Scattered at 2,000' AGL
  • Broken at 2,500' AGL
Temperature Dewpoint
6°C / 43°F 3°C / 37°F
Humidity Altimeter Pressure
81% 30.12" Hg 1020 hPa